Hazelwood, Washington
Current Conditions -  °F | °C
As of 10:53 PM on Saturday 22 Nov 2014 (Local Time) from KRNT Reporting Station
Scattered Clouds Scattered Clouds  
Wind Chill: 44°   Ceiling: Unl
Heat Index: 47°   Visibility: 10mi
Dew Point: 42°   Wind: 6mph
Humidity: 83%   Direction: 140°SE
Pressure: 30.13"   Gusts: NA
Location:  47.5152°N, 122.184°W
Report Text: KRNT 230653Z AUTO 14005KT 10SM SCT019 08/06 A3013 RMK AO2 SLP209 T00830056
Loading
Personal Weather Stations






























Interactive Weather Map New forecast layout! Learn more

10-Day Weather Forecast

Advertisements
Track Severe Weather on mobile